createdAt,value
2022-08-20T00:00:19.009Z,754.4
2022-08-20T00:02:02.393Z,751.1
2022-08-20T00:03:46.096Z,750.7
2022-08-20T00:05:29.497Z,749.3
2022-08-20T00:07:12.900Z,747.1
2022-08-20T00:08:56.283Z,743.6
2022-08-20T00:10:39.682Z,743.1
2022-08-20T00:12:23.090Z,740.2
2022-08-20T00:14:06.470Z,739.4
2022-08-20T00:15:49.870Z,740.5
2022-08-20T00:19:16.348Z,735.6
2022-08-20T00:20:59.741Z,733.4
2022-08-20T00:22:43.142Z,731
2022-08-20T00:24:26.539Z,727.2
2022-08-20T00:26:09.955Z,727
2022-08-20T00:27:53.329Z,728.7
2022-08-20T00:29:36.723Z,728.4
2022-08-20T00:34:45.958Z,724.7
2022-08-20T00:36:29.356Z,726.1
2022-08-20T00:38:12.748Z,724.6
2022-08-20T00:39:56.154Z,724.2
2022-08-20T00:41:39.536Z,722.7
2022-08-20T00:43:22.953Z,719.8
2022-08-20T00:45:06.340Z,719.5
2022-08-20T00:50:15.579Z,718.7
2022-08-20T00:51:58.974Z,714.7
2022-08-20T00:53:42.381Z,714
2022-08-20T00:55:25.777Z,711.6
2022-08-20T00:57:09.181Z,708.6
2022-08-20T00:58:52.579Z,706.1
2022-08-20T01:00:35.953Z,705.4
2022-08-20T01:02:19.360Z,705.8
2022-08-20T01:07:28.593Z,703.8
2022-08-20T01:09:12.002Z,704
2022-08-20T01:10:55.405Z,701
2022-08-20T01:12:38.786Z,698.3
2022-08-20T01:14:22.178Z,696.7
2022-08-20T01:16:05.581Z,697.4
2022-08-20T01:17:48.979Z,694.7
2022-08-20T01:19:32.377Z,693.8
2022-08-20T01:22:58.860Z,691.3
2022-08-20T01:24:42.247Z,688.8
2022-08-20T01:26:25.639Z,688.3
2022-08-20T01:28:09.055Z,689.2
2022-08-20T01:29:52.427Z,690.1
2022-08-20T01:31:35.826Z,687.6
2022-08-20T01:33:19.231Z,685
2022-08-20T01:35:02.639Z,685.4
2022-08-20T01:36:46.332Z,684.4
2022-08-20T01:38:29.712Z,686.1
2022-08-20T01:40:13.127Z,686.6
2022-08-20T01:41:56.525Z,683.8
2022-08-20T01:43:39.905Z,679.5
2022-08-20T01:45:23.309Z,676.7
2022-08-20T01:47:06.707Z,679.1
2022-08-20T01:48:50.100Z,677.8
2022-08-20T01:50:33.801Z,675.7
2022-08-20T01:52:17.205Z,674.1
2022-08-20T01:54:00.599Z,672.2
2022-08-20T01:55:43.990Z,670.5
2022-08-20T01:57:27.400Z,669.8
2022-08-20T01:59:10.812Z,668.7
2022-08-20T02:00:54.185Z,666.4
2022-08-20T02:02:38.068Z,667.6
2022-08-20T02:04:21.284Z,667.4
2022-08-20T02:06:04.694Z,666.3
2022-08-20T02:07:48.085Z,663.1
2022-08-20T02:09:31.476Z,662.4
2022-08-20T02:11:14.862Z,660.5
2022-08-20T02:12:58.251Z,658.2
2022-08-20T02:14:41.647Z,657.2
2022-08-20T02:16:25.065Z,658.4
2022-08-20T02:18:08.758Z,658.9
2022-08-20T02:19:52.167Z,658.7
2022-08-20T02:21:35.568Z,660.6
2022-08-20T02:23:19.203Z,658.3
2022-08-20T02:25:02.342Z,658.4
2022-08-20T02:26:45.746Z,660.8
2022-08-20T02:28:29.143Z,662
2022-08-20T02:30:12.547Z,661.5
2022-08-20T02:33:39.008Z,659
2022-08-20T02:35:22.418Z,662.2
2022-08-20T02:37:05.809Z,659.5
2022-08-20T02:38:49.202Z,656.2
2022-08-20T02:40:32.602Z,655
2022-08-20T02:42:15.979Z,652.4
2022-08-20T02:43:59.379Z,647.2
2022-08-20T02:45:42.781Z,645.2
2022-08-20T02:49:09.249Z,643.2
2022-08-20T02:50:52.641Z,642.6
2022-08-20T02:52:36.033Z,640.3
2022-08-20T02:54:19.436Z,641
2022-08-20T02:56:02.842Z,644.5
2022-08-20T02:57:46.236Z,645.3
2022-08-20T02:59:29.620Z,644.1
2022-08-20T03:01:13.010Z,644.3
2022-08-20T03:02:56.731Z,646.2
2022-08-20T03:04:40.139Z,645.5
2022-08-20T03:06:23.523Z,641.6
2022-08-20T03:08:06.918Z,637.6
2022-08-20T03:09:50.316Z,633.8
2022-08-20T03:11:33.713Z,631.7
2022-08-20T03:13:17.113Z,631.4
2022-08-20T03:15:00.502Z,629.5
2022-08-20T03:18:26.985Z,626.9
2022-08-20T03:20:10.421Z,626.5
2022-08-20T03:21:53.767Z,628.3
2022-08-20T03:23:37.166Z,627.8
2022-08-20T03:25:20.565Z,629.5
2022-08-20T03:27:03.971Z,627.4
2022-08-20T03:28:47.364Z,626.6
2022-08-20T03:30:30.748Z,624.8
2022-08-20T03:32:14.455Z,621.7
2022-08-20T03:33:57.870Z,622
2022-08-20T03:35:41.266Z,621
2022-08-20T03:37:24.637Z,620.2
2022-08-20T03:39:08.047Z,620.3
2022-08-20T03:40:51.447Z,621.2
2022-08-20T03:42:34.836Z,620.2
2022-08-20T03:44:18.237Z,622
2022-08-20T03:47:44.699Z,619.7
2022-08-20T03:49:28.116Z,618.3
2022-08-20T03:51:11.499Z,618.8
2022-08-20T03:52:54.910Z,618.2
2022-08-20T03:54:38.321Z,618.6
2022-08-20T03:56:21.684Z,618.4
2022-08-20T03:58:05.089Z,618.2
2022-08-20T03:59:48.489Z,618.6
2022-08-20T04:03:14.975Z,621.5
2022-08-20T04:04:58.355Z,622
2022-08-20T04:06:41.748Z,622
2022-08-20T04:08:25.146Z,619.6
2022-08-20T04:10:08.546Z,616.8
2022-08-20T04:11:51.942Z,615.6
2022-08-20T04:13:35.341Z,614
2022-08-20T04:15:18.727Z,614.5
2022-08-20T04:17:02.436Z,617.5
2022-08-20T04:18:45.838Z,617.7
2022-08-20T04:20:29.228Z,613.8
2022-08-20T04:22:12.623Z,613.7
2022-08-20T04:23:56.021Z,613.7
2022-08-20T04:25:39.420Z,613.2
2022-08-20T04:27:22.815Z,613.1
2022-08-20T04:29:06.220Z,612.8
2022-08-20T04:30:49.916Z,612.2
2022-08-20T04:32:33.310Z,610
2022-08-20T04:34:16.713Z,608.8
2022-08-20T04:36:00.111Z,610.1
2022-08-20T04:37:43.498Z,611.2
2022-08-20T04:39:26.892Z,610.5
2022-08-20T04:41:10.296Z,609.1
2022-08-20T04:42:53.685Z,606.2
2022-08-20T04:44:37.397Z,603.4
2022-08-20T04:46:20.790Z,599.7
2022-08-20T04:48:04.186Z,601.3
2022-08-20T04:49:47.578Z,600.4
2022-08-20T04:51:30.978Z,598.7
2022-08-20T04:53:14.368Z,597.3
2022-08-20T04:54:57.776Z,597.5
2022-08-20T04:58:24.248Z,601.2
2022-08-20T05:00:07.659Z,599
2022-08-20T05:01:51.056Z,599.4
2022-08-20T05:03:34.433Z,599.2
2022-08-20T05:05:17.885Z,600
2022-08-20T05:07:01.245Z,600.3
2022-08-20T05:08:44.638Z,599.3
2022-08-20T05:10:28.036Z,597.6
2022-08-20T05:12:11.733Z,596.6
2022-08-20T05:13:55.372Z,596.4
2022-08-20T05:15:38.523Z,597.5
2022-08-20T05:17:21.915Z,597.1
2022-08-20T05:19:05.323Z,596.6
2022-08-20T05:20:48.721Z,595.7
2022-08-20T05:22:32.116Z,592.1
2022-08-20T05:27:41.354Z,595.9
2022-08-20T05:29:24.741Z,596.6
2022-08-20T05:31:08.146Z,595.6
2022-08-20T05:32:51.531Z,594.4
2022-08-20T05:34:34.946Z,594.1
2022-08-20T05:36:18.342Z,594.6
2022-08-20T05:38:01.737Z,593.4
2022-08-20T05:41:28.199Z,589.1
2022-08-20T05:43:11.596Z,588.6
2022-08-20T05:44:55.011Z,587.4
2022-08-20T05:46:38.400Z,587.3
2022-08-20T05:48:21.788Z,583.1
2022-08-20T05:50:05.186Z,583
2022-08-20T05:51:48.597Z,585.5
2022-08-20T05:55:15.053Z,584.8
2022-08-20T05:56:58.453Z,584.8
2022-08-20T05:58:41.845Z,584.7
2022-08-20T06:00:25.259Z,584.3
2022-08-20T06:02:08.650Z,584.1
2022-08-20T06:03:52.039Z,588.3
2022-08-20T06:05:35.446Z,589.3
2022-08-20T06:09:01.923Z,586.3
2022-08-20T06:10:45.320Z,585.1
2022-08-20T06:12:28.705Z,586.4
2022-08-20T06:14:12.103Z,584
2022-08-20T06:15:55.503Z,582.4
2022-08-20T06:17:38.905Z,582
2022-08-20T06:19:22.299Z,582.7
2022-08-20T06:22:48.785Z,578.1
2022-08-20T06:24:32.174Z,577
2022-08-20T06:26:15.569Z,578.1
2022-08-20T06:27:58.957Z,577.8
2022-08-20T06:29:42.367Z,578
2022-08-20T06:31:25.766Z,578.3
2022-08-20T06:33:09.165Z,576.7
2022-08-20T06:34:52.559Z,575.5
2022-08-20T06:36:36.336Z,574.6
2022-08-20T06:38:19.663Z,576.2
2022-08-20T06:40:03.051Z,575.6
2022-08-20T06:41:46.460Z,574.4
2022-08-20T06:43:29.843Z,574.8
2022-08-20T06:45:13.246Z,575.8
2022-08-20T06:46:56.649Z,571.5
2022-08-20T06:48:40.043Z,567.5
2022-08-20T06:50:23.747Z,568.9
2022-08-20T06:52:07.139Z,568.7
2022-08-20T06:53:50.537Z,569.3
2022-08-20T06:55:33.944Z,572.4
2022-08-20T06:57:17.333Z,577
2022-08-20T06:59:00.733Z,579.7
2022-08-20T07:00:44.121Z,583.6
2022-08-20T07:05:53.370Z,616.2
2022-08-20T07:07:37.026Z,630.5
2022-08-20T07:09:20.178Z,627.7
2022-08-20T07:11:03.571Z,630
2022-08-20T07:12:46.950Z,634.2
2022-08-20T07:14:30.352Z,640.1
2022-08-20T07:16:13.749Z,645.1
2022-08-20T07:19:40.233Z,640.9
2022-08-20T07:21:23.625Z,638.5
2022-08-20T07:23:07.014Z,636.5
2022-08-20T07:24:50.421Z,634.5
2022-08-20T07:26:33.812Z,635.7
2022-08-20T07:28:17.230Z,639
2022-08-20T07:30:00.683Z,647.8
2022-08-20T07:31:44.018Z,657.7
2022-08-20T07:33:27.718Z,651.5
2022-08-20T07:35:11.109Z,637.4
2022-08-20T07:36:54.517Z,578.5
2022-08-20T07:38:37.919Z,577.1
2022-08-20T07:40:21.296Z,583.6
2022-08-20T07:42:04.692Z,575
2022-08-20T07:43:48.089Z,575.5
2022-08-20T07:47:14.562Z,575.5
2022-08-20T07:48:57.978Z,585.7
2022-08-20T07:50:41.392Z,592.1
2022-08-20T07:52:24.786Z,596.7
2022-08-20T07:54:08.163Z,597.2
2022-08-20T07:55:51.561Z,596.3
2022-08-20T07:57:34.949Z,597.2
2022-08-20T08:02:44.196Z,604.4
2022-08-20T08:04:27.594Z,609.8
2022-08-20T08:06:10.985Z,616.5
2022-08-20T08:07:54.388Z,618.6
2022-08-20T08:09:37.780Z,621.7
2022-08-20T08:11:21.173Z,622.3
2022-08-20T08:13:04.576Z,616.7
2022-08-20T08:16:31.059Z,613.3
2022-08-20T08:18:14.448Z,612.3
2022-08-20T08:19:57.844Z,612.6
2022-08-20T08:21:41.750Z,610.8
2022-08-20T08:23:24.628Z,611.7
2022-08-20T08:25:08.035Z,613.8
2022-08-20T08:26:51.438Z,614.4
2022-08-20T08:30:17.920Z,613.2
2022-08-20T08:32:01.314Z,613.2
2022-08-20T08:33:44.695Z,614.5
2022-08-20T08:35:28.093Z,616
2022-08-20T08:37:11.491Z,616.2
2022-08-20T08:38:54.891Z,613.4
2022-08-20T08:40:38.288Z,606.6
2022-08-20T08:42:21.691Z,601.5
2022-08-20T08:44:05.391Z,594.3
2022-08-20T08:45:48.790Z,584.7
2022-08-20T08:47:32.190Z,573.7
2022-08-20T08:49:15.580Z,563.4
2022-08-20T08:50:59.003Z,557.7
2022-08-20T08:52:42.373Z,555.2
2022-08-20T08:54:25.776Z,557.1
2022-08-20T08:57:52.262Z,556.3
2022-08-20T08:59:35.643Z,551.5
2022-08-20T09:01:19.032Z,550.6
2022-08-20T09:03:02.419Z,545.2
2022-08-20T09:04:45.826Z,544.8
2022-08-20T09:06:29.222Z,546.7
2022-08-20T09:08:12.609Z,548.1
2022-08-20T09:11:39.089Z,535.6
2022-08-20T09:13:22.485Z,532.2
2022-08-20T09:15:05.874Z,529.5
2022-08-20T09:16:49.278Z,528.4
2022-08-20T09:18:32.670Z,527.4
2022-08-20T09:20:16.078Z,527.7
2022-08-20T09:21:59.460Z,530.2
2022-08-20T09:25:25.949Z,521.9
2022-08-20T09:27:09.333Z,520.5
2022-08-20T09:28:52.732Z,525.3
2022-08-20T09:30:36.129Z,527.2
2022-08-20T09:32:19.517Z,521.7
2022-08-20T09:34:02.909Z,517.2
2022-08-20T09:35:46.322Z,510.2
2022-08-20T09:37:29.705Z,505.8
2022-08-20T09:39:13.417Z,501.5
2022-08-20T09:40:56.808Z,498.1
2022-08-20T09:42:40.222Z,498.2
2022-08-20T09:44:23.603Z,496.6
2022-08-20T09:46:07.006Z,495.4
2022-08-20T09:47:50.391Z,493.1
2022-08-20T09:49:33.791Z,490.8
2022-08-20T09:54:43.036Z,502.8
2022-08-20T09:56:26.438Z,508.7
2022-08-20T09:58:09.825Z,514.3
2022-08-20T09:59:53.222Z,516
2022-08-20T10:01:36.625Z,516.7
2022-08-20T10:03:20.017Z,517.7
2022-08-20T10:05:03.428Z,516
2022-08-20T10:08:29.898Z,510.6
2022-08-20T10:10:13.274Z,505.2
2022-08-20T10:11:56.685Z,499.2
2022-08-20T10:13:40.091Z,493.8
2022-08-20T10:15:23.467Z,488
2022-08-20T10:17:06.882Z,482.7
2022-08-20T10:18:50.278Z,479.5
2022-08-20T10:22:16.750Z,471.9
2022-08-20T10:24:00.139Z,469.8
2022-08-20T10:25:43.546Z,463.8
2022-08-20T10:27:26.939Z,462.2
2022-08-20T10:29:10.347Z,460.1
2022-08-20T10:30:53.720Z,457.3
2022-08-20T10:32:37.115Z,459.1
2022-08-20T10:34:20.538Z,461
2022-08-20T10:36:04.225Z,469.7
2022-08-20T10:37:47.654Z,479.7
2022-08-20T10:39:31.015Z,488.5
2022-08-20T10:41:14.413Z,485.5
2022-08-20T10:42:57.822Z,493.7
2022-08-20T10:44:41.211Z,502
2022-08-20T10:46:24.621Z,508.8
2022-08-20T10:48:08.008Z,517.5
2022-08-20T10:49:51.703Z,531.5
2022-08-20T10:51:35.104Z,547.2
2022-08-20T10:53:18.504Z,554.4
2022-08-20T10:55:01.900Z,551.5
2022-08-20T10:56:45.294Z,549
2022-08-20T10:58:28.694Z,551.6
2022-08-20T11:00:12.086Z,557.8
2022-08-20T11:03:38.573Z,569.9
2022-08-20T11:05:21.953Z,573.8
2022-08-20T11:07:05.348Z,578
2022-08-20T11:08:48.749Z,585.4
2022-08-20T11:10:32.144Z,584.2
2022-08-20T11:12:15.535Z,583.5
2022-08-20T11:13:58.934Z,586.4
2022-08-20T11:15:42.332Z,587.7
2022-08-20T11:17:26.050Z,595.4
2022-08-20T11:19:09.429Z,608
2022-08-20T11:20:52.825Z,626.3
2022-08-20T11:22:36.243Z,637.6
2022-08-20T11:24:19.620Z,642.7
2022-08-20T11:26:03.011Z,647.6
2022-08-20T11:27:46.415Z,648.1
2022-08-20T11:29:29.816Z,648.2
2022-08-20T11:32:56.274Z,650.4
2022-08-20T11:34:39.671Z,655.5
2022-08-20T11:36:23.071Z,659.4
2022-08-20T11:38:06.469Z,663.1
2022-08-20T11:39:49.872Z,667.7
2022-08-20T11:41:33.260Z,672.4
2022-08-20T11:43:16.657Z,679.7
2022-08-20T11:45:00.062Z,688.6
2022-08-20T11:48:26.535Z,706.5
2022-08-20T11:50:09.931Z,716.8
2022-08-20T11:51:53.316Z,734.4
2022-08-20T11:53:36.711Z,774.7
2022-08-20T11:55:20.114Z,776.4
2022-08-20T11:57:03.499Z,773.3
2022-08-20T11:58:46.911Z,775.3
2022-08-20T12:00:30.289Z,779.5
2022-08-20T12:03:56.780Z,798.6
2022-08-20T12:05:40.170Z,809.6
2022-08-20T12:07:23.573Z,812.2
2022-08-20T12:09:06.969Z,825.6
2022-08-20T12:10:50.366Z,836.7
2022-08-20T12:12:33.753Z,839.8
2022-08-20T12:14:17.163Z,840.4
2022-08-20T12:17:43.626Z,838
2022-08-20T12:19:27.016Z,828.6
2022-08-20T12:21:10.412Z,821
2022-08-20T12:22:53.844Z,817.3
2022-08-20T12:24:37.194Z,817.3
2022-08-20T12:26:20.598Z,814.6
2022-08-20T12:28:04.008Z,809.3
2022-08-20T12:31:30.475Z,801
2022-08-20T12:34:57.258Z,814
2022-08-20T12:36:40.649Z,821.6
2022-08-20T12:38:24.055Z,833.5
2022-08-20T12:40:07.448Z,840.4
2022-08-20T12:41:50.841Z,846.4
2022-08-20T12:43:34.240Z,848.3
2022-08-20T12:45:17.955Z,852.3
2022-08-20T12:47:01.335Z,860.8
2022-08-20T12:48:44.731Z,867.5
2022-08-20T12:50:28.133Z,867.5
2022-08-20T12:52:11.527Z,870.5
2022-08-20T12:53:54.926Z,871.5
2022-08-20T12:55:38.320Z,869.1
2022-08-20T13:00:47.554Z,857.3
2022-08-20T13:02:30.981Z,856.6
2022-08-20T13:04:14.358Z,852.6
2022-08-20T13:05:57.751Z,849.4
2022-08-20T13:07:41.141Z,848.2
2022-08-20T13:09:24.552Z,845.7
2022-08-20T13:11:07.948Z,841.4
2022-08-20T13:14:34.414Z,836.5
2022-08-20T13:16:17.804Z,840.7
2022-08-20T13:18:01.194Z,846.2
2022-08-20T13:19:44.598Z,849.7
2022-08-20T13:21:28.004Z,854.3
2022-08-20T13:23:11.401Z,856.1
2022-08-20T13:24:54.794Z,852.5
2022-08-20T13:30:04.035Z,833.2
2022-08-20T13:31:47.423Z,827.7
2022-08-20T13:33:30.813Z,828.6
2022-08-20T13:35:14.218Z,829.3
2022-08-20T13:36:57.621Z,822.8
2022-08-20T13:38:41.026Z,815.1
2022-08-20T13:40:24.404Z,805.5
2022-08-20T13:43:50.878Z,801.3
2022-08-20T13:45:34.280Z,798.3
2022-08-20T13:47:17.669Z,798.7
2022-08-20T13:49:01.058Z,801.3
2022-08-20T13:50:44.474Z,801.2
2022-08-20T13:52:27.874Z,799.8
2022-08-20T13:54:11.274Z,801.7
2022-08-20T13:57:37.725Z,811.3
2022-08-20T13:59:21.135Z,817.7
2022-08-20T14:01:04.526Z,821.3
2022-08-20T14:02:47.930Z,822.2
2022-08-20T14:04:31.308Z,825.4
2022-08-20T14:06:14.708Z,823.5
2022-08-20T14:07:58.112Z,823.7
2022-08-20T14:09:41.504Z,826.2
2022-08-20T14:11:25.215Z,830.6
2022-08-20T14:13:08.610Z,832.1
2022-08-20T14:14:52.018Z,833.8
2022-08-20T14:16:35.412Z,835.3
2022-08-20T14:18:18.804Z,837.3
2022-08-20T14:20:02.195Z,836.6
2022-08-20T14:21:45.602Z,840.5
2022-08-20T14:26:54.825Z,848.1
2022-08-20T14:28:38.215Z,848.7
2022-08-20T14:30:21.626Z,849.7
2022-08-20T14:32:05.024Z,852.3
2022-08-20T14:33:48.414Z,853.6
2022-08-20T14:35:31.803Z,854
2022-08-20T14:37:15.478Z,853.3
2022-08-20T14:40:41.689Z,859.8
2022-08-20T14:42:25.078Z,864.8
2022-08-20T14:44:08.470Z,872.5
2022-08-20T14:45:51.879Z,873
2022-08-20T14:47:35.302Z,874.3
2022-08-20T14:49:18.669Z,869.6
2022-08-20T14:51:02.054Z,863.7
2022-08-20T14:52:45.451Z,852.2
2022-08-20T14:54:29.149Z,832
2022-08-20T14:56:12.561Z,822.1
2022-08-20T14:57:55.951Z,811.3
2022-08-20T14:59:39.340Z,804.2
2022-08-20T15:01:22.747Z,805.8
2022-08-20T15:03:06.138Z,805.5
2022-08-20T15:04:49.527Z,805.7
2022-08-20T15:06:32.925Z,802.3
2022-08-20T15:08:16.652Z,785
2022-08-20T15:10:00.077Z,773.5
2022-08-20T15:11:43.446Z,764.3
2022-08-20T15:13:26.831Z,762.5
2022-08-20T15:15:10.229Z,764
2022-08-20T15:16:53.619Z,764.5
2022-08-20T15:18:37.019Z,755.5
2022-08-20T15:23:46.255Z,733.8
2022-08-20T15:25:29.651Z,725.3
2022-08-20T15:27:13.066Z,719.1
2022-08-20T15:28:56.455Z,713
2022-08-20T15:30:39.842Z,710.6
2022-08-20T15:32:23.246Z,712.1
2022-08-20T15:34:06.635Z,712.5
2022-08-20T15:37:33.104Z,701.7
2022-08-20T15:39:16.504Z,693.3
2022-08-20T15:40:59.910Z,687
2022-08-20T15:42:43.314Z,677.3
2022-08-20T15:44:26.691Z,666.1
2022-08-20T15:46:10.081Z,658.4
2022-08-20T15:47:53.494Z,651.1
2022-08-20T15:53:02.736Z,632.5
2022-08-20T15:54:46.132Z,633.5
2022-08-20T15:56:29.522Z,631
2022-08-20T15:58:12.917Z,625.1
2022-08-20T15:59:56.322Z,619.1
2022-08-20T16:01:39.705Z,610.7
2022-08-20T16:03:23.113Z,607
2022-08-20T16:06:49.621Z,595.9
2022-08-20T16:08:32.995Z,590.1
2022-08-20T16:10:16.385Z,585.7
2022-08-20T16:11:59.787Z,583
2022-08-20T16:13:43.170Z,586.3
2022-08-20T16:15:26.569Z,587.4
2022-08-20T16:17:09.961Z,583.5
2022-08-20T16:20:36.433Z,574.6
2022-08-20T16:22:19.842Z,569.2
2022-08-20T16:24:03.233Z,562.5
2022-08-20T16:25:46.631Z,557.8
2022-08-20T16:27:30.023Z,554.3
2022-08-20T16:29:13.435Z,549.1
2022-08-20T16:30:56.815Z,546.3
2022-08-20T16:34:23.298Z,540.5
2022-08-20T16:36:06.688Z,535.2
2022-08-20T16:37:50.094Z,532.6
2022-08-20T16:39:33.479Z,531
2022-08-20T16:41:16.885Z,520.6
2022-08-20T16:43:00.276Z,508
2022-08-20T16:44:43.686Z,497.4
2022-08-20T16:49:52.934Z,499.6
2022-08-20T16:51:36.323Z,497
2022-08-20T16:53:19.701Z,493.5
2022-08-20T16:55:03.105Z,491.5
2022-08-20T16:56:46.503Z,492.3
2022-08-20T16:58:29.897Z,491
2022-08-20T17:00:13.293Z,485.6
2022-08-20T17:03:39.784Z,493.6
2022-08-20T17:05:23.179Z,499.3
2022-08-20T17:07:06.578Z,499.8
2022-08-20T17:08:49.969Z,499.2
2022-08-20T17:10:33.358Z,496.4
2022-08-20T17:12:16.752Z,493.8
2022-08-20T17:14:00.151Z,493.4
2022-08-20T17:17:26.630Z,494.6
2022-08-20T17:19:10.017Z,494.5
2022-08-20T17:20:53.427Z,493.8
2022-08-20T17:22:36.828Z,491.4
2022-08-20T17:24:20.220Z,493.1
2022-08-20T17:26:03.615Z,491.3
2022-08-20T17:27:47.017Z,491.8
2022-08-20T17:31:13.485Z,495.2
2022-08-20T17:32:56.897Z,493.1
2022-08-20T17:34:40.297Z,491.8
2022-08-20T17:36:23.677Z,494.6
2022-08-20T17:38:07.090Z,495.2
2022-08-20T17:39:50.471Z,494.8
2022-08-20T17:41:33.874Z,495
2022-08-20T17:45:00.337Z,497.2
2022-08-20T17:46:43.743Z,499.3
2022-08-20T17:48:27.147Z,500.8
2022-08-20T17:50:10.543Z,501.5
2022-08-20T17:51:53.941Z,505.5
2022-08-20T17:53:37.340Z,511.2
2022-08-20T17:55:20.723Z,520.5
2022-08-20T17:58:47.195Z,535.7
2022-08-20T18:00:30.609Z,539.6
2022-08-20T18:02:13.991Z,544.4
2022-08-20T18:03:57.381Z,548.4
2022-08-20T18:05:40.793Z,551.3
2022-08-20T18:07:24.199Z,557.1
2022-08-20T18:09:07.575Z,560.7
2022-08-20T18:14:16.831Z,564.1
2022-08-20T18:16:00.233Z,565.2
2022-08-20T18:17:43.625Z,568.7
2022-08-20T18:19:27.009Z,579.6
2022-08-20T18:21:10.404Z,585.1
2022-08-20T18:22:53.813Z,588
2022-08-20T18:24:37.201Z,592.5
2022-08-20T18:28:03.675Z,606.4
2022-08-20T18:29:47.059Z,610.4
2022-08-20T18:31:30.475Z,613.6
2022-08-20T18:33:13.866Z,611.2
2022-08-20T18:34:57.262Z,611.5
2022-08-20T18:36:40.656Z,611.4
2022-08-20T18:38:24.049Z,612
2022-08-20T18:40:07.450Z,613.2
2022-08-20T18:41:51.138Z,612.1
2022-08-20T18:43:34.553Z,610.7
2022-08-20T18:45:17.963Z,610.4
2022-08-20T18:47:01.331Z,608.3
2022-08-20T18:48:44.743Z,607.6
2022-08-20T18:50:28.138Z,609.1
2022-08-20T18:52:11.524Z,610
2022-08-20T18:53:54.924Z,609.7
2022-08-20T18:55:38.626Z,610.2
2022-08-20T18:57:22.024Z,609.4
2022-08-20T18:59:05.412Z,608.5
2022-08-20T19:00:48.805Z,607.8
2022-08-20T19:02:32.214Z,606.5
2022-08-20T19:04:15.601Z,605.2
2022-08-20T19:05:59.001Z,602.8
2022-08-20T19:07:42.410Z,603.3
2022-08-20T19:11:08.888Z,599.9
2022-08-20T19:12:52.267Z,603
2022-08-20T19:14:35.657Z,605.3
2022-08-20T19:16:19.062Z,605.3
2022-08-20T19:18:02.462Z,603.1
2022-08-20T19:19:45.860Z,602.8
2022-08-20T19:21:29.248Z,602.5
2022-08-20T19:23:12.635Z,604
2022-08-20T19:26:39.116Z,608.5
2022-08-20T19:28:22.519Z,614.2
2022-08-20T19:30:05.899Z,615
2022-08-20T19:31:49.292Z,616.5
2022-08-20T19:33:32.694Z,618.1
2022-08-20T19:35:16.093Z,615.3
2022-08-20T19:36:59.487Z,618.4
2022-08-20T19:42:08.732Z,624.5
2022-08-20T19:43:52.120Z,623.6
2022-08-20T19:45:35.528Z,623.2
2022-08-20T19:47:18.935Z,623.8
2022-08-20T19:49:02.306Z,627
2022-08-20T19:50:45.717Z,629.3
2022-08-20T19:52:29.099Z,630.1
2022-08-20T19:57:38.346Z,633.4
2022-08-20T19:59:21.740Z,641.3
2022-08-20T20:01:05.136Z,644.3
2022-08-20T20:02:48.536Z,644.1
2022-08-20T20:04:31.946Z,646.1
2022-08-20T20:06:15.325Z,647.7
2022-08-20T20:07:58.727Z,646.4
2022-08-20T20:11:25.197Z,649.7
2022-08-20T20:13:08.591Z,649.6
2022-08-20T20:14:51.987Z,650.3
2022-08-20T20:16:35.379Z,651.8
2022-08-20T20:18:18.778Z,656.1
2022-08-20T20:20:02.194Z,659
2022-08-20T20:21:45.591Z,661.4
2022-08-20T20:23:28.974Z,661.3
2022-08-20T20:25:12.675Z,661.9
2022-08-20T20:26:56.075Z,662.3
2022-08-20T20:28:39.476Z,664.5
2022-08-20T20:30:22.870Z,665.1
2022-08-20T20:32:06.262Z,669.6
2022-08-20T20:33:49.644Z,671.7
2022-08-20T20:35:33.059Z,672.3
2022-08-20T20:38:59.517Z,675.5
2022-08-20T20:40:42.931Z,674.7
2022-08-20T20:42:26.316Z,676
2022-08-20T20:44:09.721Z,677.5
2022-08-20T20:45:53.109Z,676.5
2022-08-20T20:47:36.514Z,676.5
2022-08-20T20:49:19.903Z,677.8
2022-08-20T20:52:46.367Z,678.2
2022-08-20T20:54:29.780Z,678.3
2022-08-20T20:56:13.174Z,679.7
2022-08-20T20:57:56.570Z,680.6
2022-08-20T20:59:39.953Z,682.3
2022-08-20T21:01:23.345Z,681.8
2022-08-20T21:03:06.755Z,681
2022-08-20T21:06:33.249Z,681.6
2022-08-20T21:08:16.621Z,681.7
2022-08-20T21:10:00.004Z,681.3
2022-08-20T21:11:43.424Z,679.5
2022-08-20T21:13:26.798Z,679.3
2022-08-20T21:15:10.205Z,680.6
2022-08-20T21:16:53.594Z,682.2
2022-08-20T21:20:20.074Z,684.3
2022-08-20T21:22:03.468Z,685.5
2022-08-20T21:23:46.858Z,686
2022-08-20T21:25:30.270Z,689.3
2022-08-20T21:27:13.646Z,689.7
2022-08-20T21:28:57.043Z,687.6
2022-08-20T21:30:40.454Z,688.7
2022-08-20T21:34:06.925Z,686.7
2022-08-20T21:35:50.325Z,686.2
2022-08-20T21:37:33.710Z,688.7
2022-08-20T21:39:17.114Z,689.8
2022-08-20T21:41:00.501Z,691.5
2022-08-20T21:42:43.896Z,693.8
2022-08-20T21:44:27.295Z,692.8
2022-08-20T21:46:10.699Z,690.7
2022-08-20T21:47:54.387Z,688
2022-08-20T21:49:37.796Z,685.5
2022-08-20T21:51:21.173Z,687.5
2022-08-20T21:53:04.571Z,690.5
2022-08-20T21:54:47.980Z,692.7
2022-08-20T21:56:31.371Z,695.2
2022-08-20T21:58:14.761Z,695.1
2022-08-20T22:03:24.013Z,692.2
2022-08-20T22:05:07.417Z,692.3
2022-08-20T22:06:50.810Z,695.5
2022-08-20T22:08:34.198Z,697.4
2022-08-20T22:10:17.588Z,696.1
2022-08-20T22:12:00.990Z,698.2
2022-08-20T22:13:44.392Z,699.2
2022-08-20T22:17:10.861Z,697.2
2022-08-20T22:18:54.263Z,698.5
2022-08-20T22:20:37.647Z,699.8
2022-08-20T22:22:21.051Z,698.8
2022-08-20T22:24:04.446Z,698.6
2022-08-20T22:25:47.839Z,701.2
2022-08-20T22:27:31.230Z,699.6
2022-08-20T22:32:40.470Z,697.7
2022-08-20T22:34:23.878Z,698.2
2022-08-20T22:36:07.268Z,697.1
2022-08-20T22:37:50.669Z,697.3
2022-08-20T22:39:34.059Z,693.6
2022-08-20T22:41:17.450Z,689.2
2022-08-20T22:43:00.841Z,689.8
2022-08-20T22:48:10.097Z,686.5
2022-08-20T22:49:53.487Z,685.3
2022-08-20T22:51:36.881Z,683
2022-08-20T22:53:20.285Z,682.5
2022-08-20T22:55:03.721Z,685.2
2022-08-20T22:56:47.086Z,685.2
2022-08-20T22:58:30.518Z,684
2022-08-20T23:00:13.878Z,679.3
2022-08-20T23:03:40.327Z,676.1
2022-08-20T23:05:23.733Z,673.7
2022-08-20T23:07:07.120Z,672
2022-08-20T23:08:50.537Z,671.4
2022-08-20T23:10:33.924Z,669.3
2022-08-20T23:12:17.317Z,666.5
2022-08-20T23:14:00.720Z,662.1
2022-08-20T23:15:44.116Z,659.5
2022-08-20T23:17:27.828Z,660.3
2022-08-20T23:19:11.212Z,658.4
2022-08-20T23:20:54.609Z,655.6
2022-08-20T23:22:38.002Z,653
2022-08-20T23:24:21.412Z,651.4
2022-08-20T23:26:04.801Z,650.3
2022-08-20T23:27:48.193Z,649.5
2022-08-20T23:29:31.585Z,646.3
2022-08-20T23:31:15.291Z,644.8
2022-08-20T23:32:58.698Z,642.6
2022-08-20T23:34:42.095Z,641.7
2022-08-20T23:36:25.485Z,641.1
2022-08-20T23:38:08.881Z,640.2
2022-08-20T23:39:52.283Z,640.5
2022-08-20T23:41:35.679Z,642.1
2022-08-20T23:43:19.071Z,640.2
2022-08-20T23:45:02.764Z,642
2022-08-20T23:46:46.175Z,643.4
2022-08-20T23:48:29.554Z,642.6
2022-08-20T23:50:12.952Z,642
2022-08-20T23:51:56.342Z,644.1
2022-08-20T23:53:39.749Z,643.2
2022-08-20T23:55:23.146Z,640.7
2022-08-20T23:57:06.537Z,639.6
2022-08-20T23:58:50.253Z,640.4
